createdAt,value
2022-08-31T00:00:08.912Z,20.28
2022-08-31T00:01:08.945Z,20.28
2022-08-31T00:02:08.922Z,20.26
2022-08-31T00:03:08.863Z,20.24
2022-08-31T00:04:09.243Z,20.24
2022-08-31T00:05:08.989Z,20.24
2022-08-31T00:06:08.888Z,20.21
2022-08-31T00:07:08.836Z,20.21
2022-08-31T00:08:08.811Z,20.21
2022-08-31T00:09:09.174Z,20.20
2022-08-31T00:10:08.798Z,20.17
2022-08-31T00:11:08.793Z,20.16
2022-08-31T00:12:08.781Z,20.16
2022-08-31T00:13:08.841Z,20.16
2022-08-31T00:14:09.900Z,20.16
2022-08-31T00:15:08.702Z,20.16
2022-08-31T00:16:08.736Z,20.16
2022-08-31T00:17:08.702Z,20.11
2022-08-31T00:18:08.666Z,20.13
2022-08-31T00:19:09.072Z,20.11
2022-08-31T00:20:08.642Z,20.08
2022-08-31T00:21:09.628Z,20.06
2022-08-31T00:22:08.611Z,20.06
2022-08-31T00:23:08.600Z,20.03
2022-08-31T00:24:08.993Z,20.03
2022-08-31T00:25:08.613Z,20.02
2022-08-31T00:26:08.628Z,20.03
2022-08-31T00:27:08.541Z,20.03
2022-08-31T00:28:08.530Z,20.02
2022-08-31T00:29:08.561Z,20.01
2022-08-31T00:30:08.898Z,20.01
2022-08-31T00:31:08.521Z,19.98
2022-08-31T00:32:08.573Z,19.99
2022-08-31T00:33:08.459Z,19.99
2022-08-31T00:34:08.488Z,20.01
2022-08-31T00:35:08.881Z,20.02
2022-08-31T00:36:08.450Z,20.02
2022-08-31T00:37:08.409Z,20.01
2022-08-31T00:38:08.427Z,20.01
2022-08-31T00:39:08.831Z,20.02
2022-08-31T00:40:08.432Z,20.01
2022-08-31T00:41:08.380Z,20.02
2022-08-31T00:42:08.375Z,20.02
2022-08-31T00:43:08.347Z,19.99
2022-08-31T00:44:08.717Z,19.99
2022-08-31T00:45:08.342Z,19.98
2022-08-31T00:46:08.340Z,19.98
2022-08-31T00:47:08.289Z,19.98
2022-08-31T00:48:08.262Z,19.95
2022-08-31T00:49:08.287Z,19.96
2022-08-31T00:50:08.587Z,19.95
2022-08-31T00:51:08.232Z,19.95
2022-08-31T00:52:08.237Z,19.95
2022-08-31T00:53:08.243Z,19.95
2022-08-31T00:54:08.214Z,19.95
2022-08-31T00:55:08.587Z,19.94
2022-08-31T00:56:08.196Z,19.91
2022-08-31T00:57:08.146Z,19.92
2022-08-31T00:58:08.176Z,19.94
2022-08-31T00:59:08.228Z,19.96
2022-08-31T01:00:08.625Z,19.95
2022-08-31T01:01:08.261Z,19.95
2022-08-31T01:02:08.153Z,19.95
2022-08-31T01:03:08.069Z,19.94
2022-08-31T01:04:08.077Z,19.94
2022-08-31T01:05:08.424Z,19.94
2022-08-31T01:06:08.043Z,19.91
2022-08-31T01:07:07.994Z,19.92
2022-08-31T01:08:08.016Z,19.91
2022-08-31T01:09:08.175Z,19.91
2022-08-31T01:10:09.015Z,19.87
2022-08-31T01:11:07.976Z,19.88
2022-08-31T01:12:07.953Z,19.88
2022-08-31T01:13:07.965Z,19.91
2022-08-31T01:14:08.037Z,19.94
2022-08-31T01:15:08.671Z,19.96
2022-08-31T01:16:08.991Z,19.96
2022-08-31T01:17:07.884Z,20.01
2022-08-31T01:18:07.882Z,20.08
2022-08-31T01:19:07.879Z,20.13
2022-08-31T01:20:08.315Z,20.13
2022-08-31T01:21:07.833Z,20.14
2022-08-31T01:22:07.833Z,20.14
2022-08-31T01:23:07.843Z,20.14
2022-08-31T01:24:07.795Z,20.14
2022-08-31T01:25:08.194Z,20.16
2022-08-31T01:26:07.765Z,20.16
2022-08-31T01:27:07.756Z,20.16
2022-08-31T01:28:07.733Z,20.14
2022-08-31T01:29:07.759Z,20.11
2022-08-31T01:30:08.044Z,20.08
2022-08-31T01:31:07.708Z,20.01
2022-08-31T01:32:07.684Z,19.96
2022-08-31T01:33:07.724Z,19.88
2022-08-31T01:34:08.213Z,19.88
2022-08-31T01:35:11.493Z,19.80
2022-08-31T01:36:07.644Z,19.73
2022-08-31T01:37:07.617Z,19.63
2022-08-31T01:38:07.603Z,19.59
2022-08-31T01:39:07.592Z,19.48
2022-08-31T01:40:08.023Z,19.47
2022-08-31T01:41:07.590Z,19.44
2022-08-31T01:42:07.544Z,19.40
2022-08-31T01:43:07.568Z,19.36
2022-08-31T01:44:07.540Z,19.36
2022-08-31T01:45:07.833Z,19.36
2022-08-31T01:46:09.072Z,19.32
2022-08-31T01:47:07.756Z,19.32
2022-08-31T01:48:07.463Z,19.36
2022-08-31T01:49:07.471Z,19.31
2022-08-31T01:50:07.486Z,19.31
2022-08-31T01:51:07.829Z,19.28
2022-08-31T01:52:07.415Z,19.25
2022-08-31T01:53:07.408Z,19.25
2022-08-31T01:54:07.387Z,19.22
2022-08-31T01:55:07.381Z,19.21
2022-08-31T01:56:07.797Z,19.19
2022-08-31T01:57:07.389Z,19.16
2022-08-31T01:58:07.350Z,19.14
2022-08-31T01:59:08.455Z,19.08
2022-08-31T02:00:07.321Z,19.04
2022-08-31T02:01:10.359Z,18.98
2022-08-31T02:02:08.432Z,18.88
2022-08-31T02:03:08.086Z,18.82
2022-08-31T02:04:07.360Z,18.76
2022-08-31T02:05:07.554Z,18.67
2022-08-31T02:06:07.679Z,18.60
2022-08-31T02:07:07.259Z,18.58
2022-08-31T02:08:07.200Z,18.55
2022-08-31T02:09:07.231Z,18.57
2022-08-31T02:10:07.188Z,18.58
2022-08-31T02:11:07.629Z,18.57
2022-08-31T02:12:07.176Z,18.42
2022-08-31T02:13:07.167Z,18.32
2022-08-31T02:14:07.137Z,18.11
2022-08-31T02:15:07.119Z,17.97
2022-08-31T02:16:07.543Z,17.89
2022-08-31T02:17:07.122Z,17.81
2022-08-31T02:18:07.099Z,17.74
2022-08-31T02:19:07.088Z,17.71
2022-08-31T02:20:07.060Z,17.68
2022-08-31T02:21:07.375Z,17.64
2022-08-31T02:22:07.378Z,17.62
2022-08-31T02:23:07.436Z,17.58
2022-08-31T02:24:08.397Z,17.56
2022-08-31T02:25:07.015Z,17.52
2022-08-31T02:26:07.427Z,17.51
2022-08-31T02:27:06.984Z,17.52
2022-08-31T02:28:06.977Z,17.51
2022-08-31T02:29:06.954Z,17.51
2022-08-31T02:30:06.937Z,17.51
2022-08-31T02:31:07.435Z,17.44
2022-08-31T02:32:06.925Z,17.41
2022-08-31T02:33:06.884Z,17.40
2022-08-31T02:34:06.891Z,17.37
2022-08-31T02:35:06.866Z,17.36
2022-08-31T02:36:07.359Z,17.34
2022-08-31T02:37:06.833Z,17.34
2022-08-31T02:38:06.812Z,17.33
2022-08-31T02:39:06.815Z,17.31
2022-08-31T02:40:06.838Z,17.31
2022-08-31T02:41:07.155Z,17.30
2022-08-31T02:42:06.765Z,17.28
2022-08-31T02:43:06.771Z,17.28
2022-08-31T02:44:06.736Z,17.26
2022-08-31T02:45:06.734Z,17.25
2022-08-31T02:46:07.177Z,17.26
2022-08-31T02:47:06.694Z,17.25
2022-08-31T02:48:06.691Z,17.26
2022-08-31T02:49:06.673Z,17.25
2022-08-31T02:50:06.664Z,17.22
2022-08-31T02:51:06.654Z,17.22
2022-08-31T02:52:07.067Z,17.22
2022-08-31T02:53:06.634Z,17.19
2022-08-31T02:54:06.613Z,17.21
2022-08-31T02:55:06.622Z,17.18
2022-08-31T02:56:06.626Z,17.18
2022-08-31T02:57:07.001Z,17.19
2022-08-31T02:58:06.543Z,17.15
2022-08-31T02:59:06.543Z,17.12
2022-08-31T03:00:06.551Z,17.08
2022-08-31T03:01:06.521Z,17.08
2022-08-31T03:02:06.944Z,17.07
2022-08-31T03:03:06.517Z,17.06
2022-08-31T03:04:06.466Z,17.06
2022-08-31T03:05:06.491Z,17.03
2022-08-31T03:06:06.891Z,17.01
2022-08-31T03:07:06.461Z,17.01
2022-08-31T03:08:06.421Z,16.98
2022-08-31T03:09:06.417Z,16.98
2022-08-31T03:10:06.421Z,16.97
2022-08-31T03:11:06.372Z,16.97
2022-08-31T03:12:06.792Z,16.97
2022-08-31T03:13:06.388Z,16.97
2022-08-31T03:14:06.431Z,16.98
2022-08-31T03:15:06.680Z,16.98
2022-08-31T03:16:06.398Z,16.98
2022-08-31T03:17:06.651Z,17.00
2022-08-31T03:18:06.805Z,17.04
2022-08-31T03:19:06.273Z,17.04
2022-08-31T03:20:06.279Z,17.06
2022-08-31T03:21:06.258Z,17.08
2022-08-31T03:22:06.559Z,17.07
2022-08-31T03:23:06.219Z,17.04
2022-08-31T03:24:06.232Z,17.06
2022-08-31T03:25:06.200Z,17.06
2022-08-31T03:26:06.169Z,17.06
2022-08-31T03:27:06.592Z,17.04
2022-08-31T03:28:06.160Z,17.04
2022-08-31T03:29:06.146Z,17.04
2022-08-31T03:30:06.120Z,17.01
2022-08-31T03:31:06.157Z,17.01
2022-08-31T03:32:06.518Z,16.98
2022-08-31T03:33:06.095Z,16.97
2022-08-31T03:34:06.075Z,16.97
2022-08-31T03:35:06.092Z,16.98
2022-08-31T03:36:06.057Z,16.98
2022-08-31T03:37:06.387Z,16.97
2022-08-31T03:38:06.019Z,16.97
2022-08-31T03:39:06.026Z,16.97
2022-08-31T03:40:06.017Z,16.96
2022-08-31T03:41:05.965Z,16.94
2022-08-31T03:42:06.284Z,16.94
2022-08-31T03:43:05.965Z,16.93
2022-08-31T03:44:05.947Z,16.97
2022-08-31T03:45:05.924Z,16.96
2022-08-31T03:46:06.110Z,16.96
2022-08-31T03:47:07.325Z,16.97
2022-08-31T03:48:10.030Z,16.96
2022-08-31T03:49:06.885Z,16.91
2022-08-31T03:50:05.842Z,16.93
2022-08-31T03:51:05.842Z,16.93
2022-08-31T03:52:06.265Z,16.93
2022-08-31T03:53:05.845Z,16.93
2022-08-31T03:54:05.786Z,16.91
2022-08-31T03:55:05.792Z,16.93
2022-08-31T03:56:05.794Z,16.93
2022-08-31T03:57:06.192Z,16.89
2022-08-31T03:58:06.006Z,16.85
2022-08-31T03:59:05.751Z,16.86
2022-08-31T04:00:05.994Z,16.83
2022-08-31T04:01:05.758Z,16.83
2022-08-31T04:02:06.150Z,16.83
2022-08-31T04:03:05.735Z,16.81
2022-08-31T04:04:06.624Z,16.79
2022-08-31T04:05:05.671Z,16.79
2022-08-31T04:06:05.640Z,16.78
2022-08-31T04:07:05.983Z,16.75
2022-08-31T04:08:05.604Z,16.75
2022-08-31T04:09:05.620Z,16.76
2022-08-31T04:10:05.590Z,16.75
2022-08-31T04:11:05.582Z,16.73
2022-08-31T04:12:05.965Z,16.73
2022-08-31T04:13:05.561Z,16.71
2022-08-31T04:14:05.522Z,16.71
2022-08-31T04:15:05.538Z,16.70
2022-08-31T04:16:05.776Z,16.71
2022-08-31T04:17:05.863Z,16.71
2022-08-31T04:18:05.471Z,16.68
2022-08-31T04:19:07.904Z,16.70
2022-08-31T04:20:05.451Z,16.71
2022-08-31T04:21:05.452Z,16.70
2022-08-31T04:22:05.731Z,16.75
2022-08-31T04:23:05.420Z,16.75
2022-08-31T04:24:05.387Z,16.73
2022-08-31T04:25:05.399Z,16.73
2022-08-31T04:26:05.397Z,16.71
2022-08-31T04:27:05.370Z,16.73
2022-08-31T04:28:05.730Z,16.71
2022-08-31T04:29:08.597Z,16.71
2022-08-31T04:30:06.309Z,16.75
2022-08-31T04:31:05.317Z,16.78
2022-08-31T04:32:05.289Z,16.78
2022-08-31T04:33:05.739Z,16.76
2022-08-31T04:34:05.265Z,16.78
2022-08-31T04:35:05.255Z,16.75
2022-08-31T04:36:05.239Z,16.76
2022-08-31T04:37:05.279Z,16.75
2022-08-31T04:38:05.681Z,16.76
2022-08-31T04:39:05.188Z,16.76
2022-08-31T04:40:05.252Z,16.81
2022-08-31T04:41:05.176Z,16.82
2022-08-31T04:42:05.204Z,16.82
2022-08-31T04:43:05.567Z,16.85
2022-08-31T04:44:05.126Z,16.85
2022-08-31T04:45:05.157Z,16.85
2022-08-31T04:46:05.180Z,16.85
2022-08-31T04:47:05.084Z,16.88
2022-08-31T04:48:05.515Z,16.88
2022-08-31T04:49:05.057Z,16.88
2022-08-31T04:50:05.037Z,16.91
2022-08-31T04:51:05.037Z,16.89
2022-08-31T04:52:05.005Z,16.91
2022-08-31T04:53:05.394Z,16.89
2022-08-31T04:54:05.006Z,16.88
2022-08-31T04:55:05.006Z,16.88
2022-08-31T04:56:04.955Z,16.85
2022-08-31T04:57:04.985Z,16.85
2022-08-31T04:58:05.366Z,16.83
2022-08-31T04:59:12.086Z,16.83
2022-08-31T05:00:04.904Z,16.82
2022-08-31T05:01:04.934Z,16.83
2022-08-31T05:02:05.016Z,16.83
2022-08-31T05:03:04.915Z,16.85
2022-08-31T05:04:04.876Z,16.85
2022-08-31T05:05:04.844Z,16.85
2022-08-31T05:06:04.836Z,16.86
2022-08-31T05:07:04.833Z,16.88
2022-08-31T05:08:05.272Z,16.88
2022-08-31T05:09:04.806Z,16.89
2022-08-31T05:10:04.785Z,16.89
2022-08-31T05:11:04.794Z,16.89
2022-08-31T05:12:04.743Z,16.91
2022-08-31T05:13:04.783Z,16.91
2022-08-31T05:14:04.816Z,16.91
2022-08-31T05:15:04.744Z,16.91
2022-08-31T05:16:04.777Z,16.89
2022-08-31T05:17:04.675Z,16.91
2022-08-31T05:18:04.703Z,16.91
2022-08-31T05:19:04.662Z,16.91
2022-08-31T05:20:04.690Z,16.93
2022-08-31T05:21:04.630Z,16.93
2022-08-31T05:22:04.652Z,16.94
2022-08-31T05:23:04.644Z,16.96
2022-08-31T05:24:04.603Z,16.96
2022-08-31T05:25:04.586Z,16.96
2022-08-31T05:26:04.592Z,17.00
2022-08-31T05:27:04.534Z,17.00
2022-08-31T05:28:04.564Z,17.01
2022-08-31T05:29:04.542Z,17.03
2022-08-31T05:30:04.541Z,17.00
2022-08-31T05:31:04.559Z,17.03
2022-08-31T05:32:04.492Z,17.03
2022-08-31T05:33:04.501Z,17.01
2022-08-31T05:34:04.901Z,17.00
2022-08-31T05:35:04.442Z,17.01
2022-08-31T05:36:04.430Z,17.01
2022-08-31T05:37:04.401Z,17.04
2022-08-31T05:38:04.411Z,16.98
2022-08-31T05:39:25.780Z,16.98
2022-08-31T05:40:04.399Z,16.98
2022-08-31T05:41:04.357Z,16.97
2022-08-31T05:42:04.341Z,16.98
2022-08-31T05:43:04.343Z,17.03
2022-08-31T05:44:04.664Z,17.03
2022-08-31T05:45:04.323Z,17.07
2022-08-31T05:46:08.098Z,17.08
2022-08-31T05:47:05.334Z,17.12
2022-08-31T05:48:04.268Z,17.14
2022-08-31T05:49:04.304Z,17.15
2022-08-31T05:50:04.248Z,17.18
2022-08-31T05:51:04.239Z,17.21
2022-08-31T05:52:04.327Z,17.23
2022-08-31T05:53:04.311Z,17.26
2022-08-31T05:54:04.537Z,17.28
2022-08-31T05:55:04.189Z,17.31
2022-08-31T05:56:04.160Z,17.33
2022-08-31T05:57:04.155Z,17.34
2022-08-31T05:58:04.128Z,17.36
2022-08-31T05:59:04.518Z,17.36
2022-08-31T06:00:04.116Z,17.37
2022-08-31T06:01:04.098Z,17.38
2022-08-31T06:02:04.192Z,17.40
2022-08-31T06:03:04.087Z,17.41
2022-08-31T06:04:04.078Z,17.40
2022-08-31T06:05:04.096Z,17.40
2022-08-31T06:06:04.048Z,17.40
2022-08-31T06:07:04.118Z,17.43
2022-08-31T06:08:04.025Z,17.43
2022-08-31T06:09:04.344Z,17.43
2022-08-31T06:10:04.000Z,17.44
2022-08-31T06:11:03.984Z,17.44
2022-08-31T06:12:03.944Z,17.43
2022-08-31T06:13:03.937Z,17.46
2022-08-31T06:14:04.368Z,17.46
2022-08-31T06:15:03.896Z,17.48
2022-08-31T06:16:03.969Z,17.48
2022-08-31T06:17:03.883Z,17.48
2022-08-31T06:18:03.896Z,17.51
2022-08-31T06:19:04.173Z,17.51
2022-08-31T06:20:03.858Z,17.51
2022-08-31T06:21:03.845Z,17.52
2022-08-31T06:22:03.823Z,17.51
2022-08-31T06:23:03.811Z,17.55
2022-08-31T06:24:04.264Z,17.54
2022-08-31T06:25:03.783Z,17.55
2022-08-31T06:26:03.765Z,17.54
2022-08-31T06:27:03.764Z,17.52
2022-08-31T06:28:03.740Z,17.54
2022-08-31T06:29:04.171Z,17.52
2022-08-31T06:30:04.891Z,17.52
2022-08-31T06:31:03.788Z,17.54
2022-08-31T06:32:03.730Z,17.56
2022-08-31T06:33:03.906Z,17.55
2022-08-31T06:34:04.163Z,17.58
2022-08-31T06:35:03.666Z,17.56
2022-08-31T06:36:03.651Z,17.56
2022-08-31T06:37:03.671Z,17.56
2022-08-31T06:38:03.614Z,17.56
2022-08-31T06:39:03.592Z,17.56
2022-08-31T06:40:03.671Z,17.58
2022-08-31T06:41:03.575Z,17.62
2022-08-31T06:42:03.579Z,17.59
2022-08-31T06:43:03.562Z,17.59
2022-08-31T06:44:03.541Z,17.58
2022-08-31T06:45:03.922Z,17.58
2022-08-31T06:46:03.574Z,17.59
2022-08-31T06:47:03.507Z,17.59
2022-08-31T06:48:03.500Z,17.62
2022-08-31T06:49:03.464Z,17.63
2022-08-31T06:50:03.911Z,17.62
2022-08-31T06:51:03.451Z,17.64
2022-08-31T06:52:03.449Z,17.62
2022-08-31T06:53:03.435Z,17.62
2022-08-31T06:54:21.507Z,17.63
2022-08-31T06:55:04.840Z,17.66
2022-08-31T06:56:03.370Z,17.68
2022-08-31T06:57:03.361Z,17.68
2022-08-31T06:58:03.349Z,17.66
2022-08-31T06:59:03.351Z,17.70
2022-08-31T07:00:03.711Z,17.71
2022-08-31T07:01:03.375Z,17.71
2022-08-31T07:02:03.438Z,17.70
2022-08-31T07:03:03.322Z,17.70
2022-08-31T07:04:03.716Z,17.72
2022-08-31T07:05:03.288Z,17.74
2022-08-31T07:06:03.238Z,17.75
2022-08-31T07:07:03.239Z,17.75
2022-08-31T07:08:03.210Z,17.74
2022-08-31T07:09:03.228Z,17.72
2022-08-31T07:10:03.644Z,17.71
2022-08-31T07:11:03.208Z,17.72
2022-08-31T07:12:03.156Z,17.71
2022-08-31T07:13:03.180Z,17.72
2022-08-31T07:14:03.139Z,17.72
2022-08-31T07:15:03.146Z,17.75
2022-08-31T07:16:03.217Z,17.72
2022-08-31T07:17:03.152Z,17.72
2022-08-31T07:18:06.076Z,17.72
2022-08-31T07:19:04.093Z,17.75
2022-08-31T07:20:03.096Z,17.77
2022-08-31T07:21:03.056Z,17.77
2022-08-31T07:22:03.028Z,17.77
2022-08-31T07:23:03.017Z,17.75
2022-08-31T07:24:03.058Z,17.72
2022-08-31T07:25:03.398Z,17.75
2022-08-31T07:26:02.977Z,17.77
2022-08-31T07:27:02.965Z,17.78
2022-08-31T07:28:02.960Z,17.81
2022-08-31T07:29:02.946Z,17.78
2022-08-31T07:30:03.329Z,17.75
2022-08-31T07:31:02.957Z,17.75
2022-08-31T07:32:02.922Z,17.78
2022-08-31T07:33:02.878Z,17.79
2022-08-31T07:34:02.878Z,17.79
2022-08-31T07:35:02.859Z,17.77
2022-08-31T07:36:03.164Z,17.75
2022-08-31T07:37:02.834Z,17.77
2022-08-31T07:38:02.822Z,17.75
2022-08-31T07:39:02.835Z,17.75
2022-08-31T07:40:07.036Z,17.75
2022-08-31T07:41:04.318Z,17.75
2022-08-31T07:42:02.774Z,17.78
2022-08-31T07:43:02.774Z,17.79
2022-08-31T07:44:02.762Z,17.79
2022-08-31T07:45:02.746Z,17.82
2022-08-31T07:46:03.126Z,17.82
2022-08-31T07:47:02.714Z,17.86
2022-08-31T07:48:02.735Z,17.86
2022-08-31T07:49:02.698Z,17.82
2022-08-31T07:50:02.683Z,17.81
2022-08-31T07:51:02.684Z,17.84
2022-08-31T07:52:02.636Z,17.87
2022-08-31T07:53:02.642Z,17.89
2022-08-31T07:54:02.620Z,17.89
2022-08-31T07:55:02.715Z,17.89
2022-08-31T07:56:02.999Z,17.89
2022-08-31T07:57:02.592Z,17.92
2022-08-31T07:58:02.562Z,17.92
2022-08-31T07:59:02.605Z,17.92
2022-08-31T08:00:02.541Z,17.93
2022-08-31T08:01:02.895Z,17.93
2022-08-31T08:02:02.608Z,17.93
2022-08-31T08:03:02.510Z,17.96
2022-08-31T08:04:02.482Z,17.90
2022-08-31T08:05:02.480Z,17.92
2022-08-31T08:06:02.812Z,17.93
2022-08-31T08:07:02.450Z,17.96
2022-08-31T08:08:02.441Z,17.99
2022-08-31T08:09:22.438Z,18.00
2022-08-31T08:10:03.431Z,18.02
2022-08-31T08:11:02.441Z,18.03
2022-08-31T08:12:02.390Z,17.97
2022-08-31T08:13:04.876Z,17.96
2022-08-31T08:14:06.576Z,17.96
2022-08-31T08:15:03.360Z,17.97
2022-08-31T08:16:02.433Z,17.97
2022-08-31T08:17:02.321Z,18.00
2022-08-31T08:18:02.319Z,17.99
2022-08-31T08:19:02.293Z,18.02
2022-08-31T08:20:02.271Z,18.00
2022-08-31T08:21:02.332Z,17.99
2022-08-31T08:22:02.271Z,18.00
2022-08-31T08:23:02.226Z,17.99
2022-08-31T08:24:02.228Z,17.96
2022-08-31T08:25:02.207Z,17.97
2022-08-31T08:26:02.629Z,18.00
2022-08-31T08:27:02.438Z,18.02
2022-08-31T08:28:17.147Z,18.00
2022-08-31T08:29:03.187Z,18.02
2022-08-31T08:30:02.146Z,18.05
2022-08-31T08:31:02.197Z,18.05
2022-08-31T08:32:02.159Z,18.02
2022-08-31T08:33:02.164Z,18.02
2022-08-31T08:34:02.375Z,18.02
2022-08-31T08:35:02.206Z,18.00
2022-08-31T08:36:02.076Z,18.02
2022-08-31T08:37:02.447Z,18.03
2022-08-31T08:38:05.720Z,18.05
2022-08-31T08:39:03.039Z,18.07
2022-08-31T08:40:02.065Z,18.03
2022-08-31T08:41:02.016Z,18.03
2022-08-31T08:42:02.326Z,18.05
2022-08-31T08:43:01.982Z,18.08
2022-08-31T08:44:01.947Z,18.08
2022-08-31T08:45:01.947Z,18.08
2022-08-31T08:46:19.786Z,18.08
2022-08-31T08:47:03.377Z,18.07
2022-08-31T08:48:01.934Z,18.11
2022-08-31T08:49:01.969Z,18.12
2022-08-31T08:50:01.875Z,18.15
2022-08-31T08:51:01.864Z,18.18
2022-08-31T08:52:02.085Z,18.17
2022-08-31T08:53:01.933Z,18.21
2022-08-31T08:54:01.844Z,18.25
2022-08-31T08:55:01.817Z,18.30
2022-08-31T08:56:23.134Z,18.33
2022-08-31T08:57:02.823Z,18.39
2022-08-31T08:58:01.798Z,18.41
2022-08-31T08:59:01.793Z,18.44
2022-08-31T09:00:01.764Z,18.45
2022-08-31T09:01:01.764Z,18.47
2022-08-31T09:02:02.414Z,18.52
2022-08-31T09:03:01.882Z,18.58
2022-08-31T09:04:01.713Z,18.65
2022-08-31T09:05:01.674Z,18.67
2022-08-31T09:06:01.673Z,18.72
2022-08-31T09:07:09.499Z,18.76
2022-08-31T09:08:08.838Z,18.80
2022-08-31T09:09:01.653Z,18.85
2022-08-31T09:10:01.625Z,18.90
2022-08-31T09:11:01.610Z,18.95
2022-08-31T09:12:01.843Z,19.08
2022-08-31T09:13:01.574Z,19.16
2022-08-31T09:14:01.555Z,19.18
2022-08-31T09:15:01.562Z,19.23
2022-08-31T09:16:01.655Z,19.26
2022-08-31T09:17:01.932Z,19.23
2022-08-31T09:18:01.579Z,19.19
2022-08-31T09:19:01.506Z,19.31
2022-08-31T09:20:01.545Z,19.40
2022-08-31T09:21:01.473Z,19.43
2022-08-31T09:22:01.499Z,19.54
2022-08-31T09:23:01.450Z,19.66
2022-08-31T09:24:01.433Z,19.73
2022-08-31T09:25:01.429Z,19.74
2022-08-31T09:26:03.961Z,19.77
2022-08-31T09:27:02.431Z,19.77
2022-08-31T09:28:01.370Z,19.86
2022-08-31T09:29:01.369Z,19.99
2022-08-31T09:30:01.374Z,20.13
2022-08-31T09:31:01.413Z,20.24
2022-08-31T09:32:05.956Z,20.50
2022-08-31T09:33:01.314Z,20.64
2022-08-31T09:34:01.301Z,20.76
2022-08-31T09:35:01.283Z,20.92
2022-08-31T09:36:01.261Z,21.03
2022-08-31T09:37:01.254Z,21.12
2022-08-31T09:38:01.329Z,21.21
2022-08-31T09:39:01.234Z,21.28
2022-08-31T09:40:04.369Z,21.47
2022-08-31T09:41:02.336Z,21.61
2022-08-31T09:42:01.258Z,21.67
2022-08-31T09:43:01.201Z,21.82
2022-08-31T09:44:01.223Z,21.96
2022-08-31T09:45:01.794Z,21.98
2022-08-31T09:46:01.732Z,21.92
2022-08-31T09:47:01.148Z,21.91
2022-08-31T09:48:01.132Z,21.86
2022-08-31T09:49:01.111Z,21.83
2022-08-31T09:50:01.081Z,21.77
2022-08-31T09:51:01.131Z,21.75
2022-08-31T09:52:01.297Z,21.67
2022-08-31T09:53:01.040Z,21.77
2022-08-31T09:54:01.058Z,21.77
2022-08-31T09:55:01.026Z,21.79
2022-08-31T09:56:01.011Z,21.94
2022-08-31T09:57:00.991Z,22.06
2022-08-31T09:58:01.060Z,22.17
2022-08-31T09:59:00.981Z,22.31
2022-08-31T10:00:00.960Z,22.60
2022-08-31T10:01:01.011Z,22.76
2022-08-31T10:02:01.409Z,22.90
2022-08-31T10:03:06.001Z,23.12
2022-08-31T10:04:01.915Z,23.39
2022-08-31T10:05:01.052Z,23.42
2022-08-31T10:06:00.888Z,23.51
2022-08-31T10:07:01.171Z,23.78
2022-08-31T10:08:00.866Z,24.00
2022-08-31T10:09:00.850Z,24.22
2022-08-31T10:10:00.820Z,24.08
2022-08-31T10:11:00.829Z,23.78
2022-08-31T10:12:01.132Z,23.15
2022-08-31T10:13:00.830Z,22.65
2022-08-31T10:14:00.770Z,22.61
2022-08-31T10:15:00.779Z,22.77
2022-08-31T10:16:00.790Z,22.90
2022-08-31T10:17:01.178Z,23.01
2022-08-31T10:18:00.974Z,23.04
2022-08-31T10:19:00.770Z,22.98
2022-08-31T10:20:00.730Z,23.05
2022-08-31T10:21:00.707Z,23.13
2022-08-31T10:22:00.700Z,23.19
2022-08-31T10:23:00.691Z,23.28
2022-08-31T10:24:00.630Z,23.20
2022-08-31T10:25:00.647Z,23.20
2022-08-31T10:26:00.659Z,23.20
2022-08-31T10:27:00.647Z,23.40
2022-08-31T10:28:00.602Z,23.20
2022-08-31T10:29:00.582Z,23.20
2022-08-31T10:30:00.570Z,22.95
2022-08-31T10:31:00.633Z,22.91
2022-08-31T10:32:00.712Z,22.85
2022-08-31T10:33:00.640Z,22.72
2022-08-31T10:34:00.560Z,22.35
2022-08-31T10:35:00.500Z,22.06
2022-08-31T10:36:00.484Z,22.00
2022-08-31T10:37:00.547Z,22.03
2022-08-31T10:38:00.469Z,21.96
2022-08-31T10:39:00.612Z,21.92
2022-08-31T10:40:00.497Z,21.96
2022-08-31T10:41:00.460Z,21.80
2022-08-31T10:42:00.828Z,21.80
2022-08-31T10:43:00.422Z,21.83
2022-08-31T10:44:00.380Z,21.83
2022-08-31T10:45:00.380Z,21.77
2022-08-31T10:46:00.410Z,21.90
2022-08-31T10:47:00.407Z,22.03
2022-08-31T10:48:00.333Z,22.18
2022-08-31T10:49:00.342Z,22.05
2022-08-31T10:50:00.404Z,22.10
2022-08-31T10:51:00.360Z,22.14
2022-08-31T10:52:00.630Z,22.33
2022-08-31T10:53:02.646Z,22.45
2022-08-31T10:54:00.249Z,22.40
2022-08-31T10:55:00.239Z,22.33
2022-08-31T10:56:00.261Z,22.30
2022-08-31T10:57:00.708Z,22.45
2022-08-31T10:58:00.199Z,22.54
2022-08-31T10:59:00.249Z,22.42
2022-08-31T11:00:00.177Z,22.43
2022-08-31T11:01:00.544Z,22.35
2022-08-31T11:02:00.569Z,22.37
2022-08-31T11:03:00.144Z,22.55
2022-08-31T11:04:08.417Z,22.67
2022-08-31T11:05:08.419Z,22.65
2022-08-31T11:06:08.378Z,22.68
2022-08-31T11:07:00.107Z,22.37
2022-08-31T11:08:08.651Z,22.33
2022-08-31T11:09:10.290Z,22.37
2022-08-31T11:10:08.272Z,22.58
2022-08-31T11:11:00.058Z,22.85
2022-08-31T11:12:08.598Z,23.13
2022-08-31T11:13:08.357Z,23.39
2022-08-31T11:14:00.055Z,23.35
2022-08-31T11:15:08.352Z,23.50
2022-08-31T11:16:00.056Z,23.61
2022-08-31T11:17:00.125Z,23.53
2022-08-31T11:18:07.348Z,23.07
2022-08-31T11:18:59.941Z,23.15
2022-08-31T11:20:08.132Z,23.23
2022-08-31T11:21:09.251Z,23.16
2022-08-31T11:21:59.960Z,22.77
2022-08-31T11:23:00.651Z,22.58
2022-08-31T11:24:07.192Z,22.70
2022-08-31T11:24:59.893Z,22.60
2022-08-31T11:25:59.858Z,22.61
2022-08-31T11:26:59.894Z,22.61
2022-08-31T11:28:00.312Z,22.88
2022-08-31T11:29:07.184Z,22.97
2022-08-31T11:30:08.051Z,23.20
2022-08-31T11:31:08.112Z,23.51
2022-08-31T11:32:06.980Z,23.80
2022-08-31T11:33:08.942Z,24.10
2022-08-31T11:34:15.505Z,24.15
2022-08-31T11:36:11.316Z,24.13
2022-08-31T11:37:20.222Z,24.06
2022-08-31T11:38:18.647Z,24.05
2022-08-31T11:39:18.173Z,24.06
2022-08-31T11:40:19.334Z,24.00
2022-08-31T11:41:19.170Z,24.02
2022-08-31T11:42:18.130Z,23.95
2022-08-31T11:43:19.800Z,24.06
2022-08-31T11:44:18.103Z,23.84
2022-08-31T11:45:19.172Z,23.84
2022-08-31T11:46:10.924Z,23.79
2022-08-31T11:47:10.937Z,23.79
2022-08-31T11:48:20.452Z,23.78
2022-08-31T11:49:10.899Z,23.73
2022-08-31T11:50:10.883Z,23.79
2022-08-31T11:51:10.779Z,23.76
2022-08-31T11:54:35.033Z,23.36
2022-08-31T11:55:34.753Z,23.36
2022-08-31T11:56:34.740Z,23.53
2022-08-31T11:57:37.774Z,23.51
2022-08-31T11:58:35.078Z,23.47
2022-08-31T11:59:34.649Z,23.51
2022-08-31T12:00:34.618Z,23.70
2022-08-31T12:01:34.628Z,23.91
2022-08-31T12:02:34.648Z,24.10
2022-08-31T12:03:34.908Z,24.03
2022-08-31T12:04:34.578Z,24.20
2022-08-31T12:05:34.632Z,24.12
2022-08-31T12:06:34.537Z,24.10
2022-08-31T12:07:34.597Z,24.27
2022-08-31T12:08:34.589Z,24.35
2022-08-31T12:09:34.614Z,24.31
2022-08-31T12:10:34.507Z,24.06
2022-08-31T12:11:35.338Z,23.94
2022-08-31T12:12:34.581Z,23.76
2022-08-31T12:13:34.904Z,23.72
2022-08-31T12:14:34.459Z,23.69
2022-08-31T12:15:34.509Z,23.55
2022-08-31T12:16:34.509Z,23.57
2022-08-31T12:17:34.458Z,23.58
2022-08-31T12:18:34.833Z,23.32
2022-08-31T12:19:34.410Z,23.19
2022-08-31T12:20:34.378Z,23.10
2022-08-31T12:21:34.389Z,23.22
2022-08-31T12:22:34.349Z,23.23
2022-08-31T12:23:34.592Z,22.98
2022-08-31T12:24:34.329Z,22.86
2022-08-31T12:25:34.658Z,23.00
2022-08-31T12:26:34.377Z,23.04
2022-08-31T12:27:36.273Z,23.13
2022-08-31T12:28:34.729Z,23.16
2022-08-31T12:29:34.359Z,23.25
2022-08-31T12:30:34.272Z,23.22
2022-08-31T12:31:34.397Z,23.39
2022-08-31T12:32:34.309Z,23.31
2022-08-31T12:33:34.359Z,23.43
2022-08-31T12:34:34.189Z,23.48
2022-08-31T12:35:34.227Z,23.48
2022-08-31T12:36:34.206Z,23.48
2022-08-31T12:37:34.180Z,23.27
2022-08-31T12:38:34.168Z,22.94
2022-08-31T12:39:34.744Z,22.52
2022-08-31T12:40:34.344Z,22.40
2022-08-31T12:41:34.121Z,22.37
2022-08-31T12:42:34.090Z,22.47
2022-08-31T12:43:34.435Z,22.36
2022-08-31T12:44:34.135Z,22.31
2022-08-31T12:45:34.099Z,22.21
2022-08-31T12:46:34.112Z,22.20
2022-08-31T12:47:34.096Z,22.17
2022-08-31T12:48:34.490Z,22.27
2022-08-31T12:49:34.125Z,22.42
2022-08-31T12:50:34.144Z,22.54
2022-08-31T12:51:34.097Z,22.58
2022-08-31T12:52:33.964Z,22.60
2022-08-31T12:53:34.350Z,22.64
2022-08-31T12:54:33.942Z,22.60
2022-08-31T12:55:33.978Z,22.62